sensor_id;sensor_type;location;lat;lon;timestamp;temperature;humidity
6210;DHT22;3138;52.550;13.148;2024-02-21T00:02:06;7.70;99.90
6210;DHT22;3138;52.550;13.148;2024-02-21T00:04:33;7.70;99.90
6210;DHT22;3138;52.550;13.148;2024-02-21T00:07:00;7.70;99.90
6210;DHT22;3138;52.550;13.148;2024-02-21T00:09:28;7.60;99.90
6210;DHT22;3138;52.550;13.148;2024-02-21T00:11:55;7.60;99.90
6210;DHT22;3138;52.550;13.148;2024-02-21T00:14:24;7.50;99.90
6210;DHT22;3138;52.550;13.148;2024-02-21T00:16:51;7.50;99.90
6210;DHT22;3138;52.550;13.148;2024-02-21T00:19:17;7.50;99.90
6210;DHT22;3138;52.550;13.148;2024-02-21T00:21:44;7.50;99.90
6210;DHT22;3138;52.550;13.148;2024-02-21T00:24:11;7.50;99.90
6210;DHT22;3138;52.550;13.148;2024-02-21T00:26:39;7.50;99.90
6210;DHT22;3138;52.550;13.148;2024-02-21T00:29:06;7.50;99.90
6210;DHT22;3138;52.550;13.148;2024-02-21T00:31:33;7.50;99.90
6210;DHT22;3138;52.550;13.148;2024-02-21T00:34:00;7.50;99.90
6210;DHT22;3138;52.550;13.148;2024-02-21T00:36:27;7.50;99.90
6210;DHT22;3138;52.550;13.148;2024-02-21T00:38:53;7.50;99.90
6210;DHT22;3138;52.550;13.148;2024-02-21T00:41:20;7.50;99.90
6210;DHT22;3138;52.550;13.148;2024-02-21T00:43:48;7.50;99.90
6210;DHT22;3138;52.550;13.148;2024-02-21T00:46:15;7.50;99.90
6210;DHT22;3138;52.550;13.148;2024-02-21T00:48:42;7.50;99.90
6210;DHT22;3138;52.550;13.148;2024-02-21T00:51:09;7.40;99.90
6210;DHT22;3138;52.550;13.148;2024-02-21T00:53:36;7.40;99.90
6210;DHT22;3138;52.550;13.148;2024-02-21T00:56:04;7.50;99.90
6210;DHT22;3138;52.550;13.148;2024-02-21T00:58:31;7.50;99.90
6210;DHT22;3138;52.550;13.148;2024-02-21T01:01:00;7.60;99.90
6210;DHT22;3138;52.550;13.148;2024-02-21T01:03:27;7.50;99.90
6210;DHT22;3138;52.550;13.148;2024-02-21T01:05:54;7.50;99.90
6210;DHT22;3138;52.550;13.148;2024-02-21T01:08:20;7.50;99.90
6210;DHT22;3138;52.550;13.148;2024-02-21T01:10:47;7.60;99.90
6210;DHT22;3138;52.550;13.148;2024-02-21T01:13:14;7.50;99.90
6210;DHT22;3138;52.550;13.148;2024-02-21T01:15:41;7.60;99.90
6210;DHT22;3138;52.550;13.148;2024-02-21T01:18:09;7.60;99.90
6210;DHT22;3138;52.550;13.148;2024-02-21T01:20:36;7.60;99.90
6210;DHT22;3138;52.550;13.148;2024-02-21T01:23:03;7.60;99.90
6210;DHT22;3138;52.550;13.148;2024-02-21T01:25:30;7.60;99.90
6210;DHT22;3138;52.550;13.148;2024-02-21T01:27:56;7.70;99.90
6210;DHT22;3138;52.550;13.148;2024-02-21T01:30:23;7.70;99.90
6210;DHT22;3138;52.550;13.148;2024-02-21T01:32:50;7.70;99.90
6210;DHT22;3138;52.550;13.148;2024-02-21T01:35:18;7.70;99.90
6210;DHT22;3138;52.550;13.148;2024-02-21T01:37:45;7.70;99.90
6210;DHT22;3138;52.550;13.148;2024-02-21T01:40:12;7.70;99.90
6210;DHT22;3138;52.550;13.148;2024-02-21T01:42:39;7.70;99.90
6210;DHT22;3138;52.550;13.148;2024-02-21T01:45:06;7.70;99.90
6210;DHT22;3138;52.550;13.148;2024-02-21T01:47:34;7.70;99.90
6210;DHT22;3138;52.550;13.148;2024-02-21T01:50:01;7.70;99.90
6210;DHT22;3138;52.550;13.148;2024-02-21T01:52:30;7.70;99.90
6210;DHT22;3138;52.550;13.148;2024-02-21T01:54:59;7.70;99.90
6210;DHT22;3138;52.550;13.148;2024-02-21T01:57:29;7.70;99.90
6210;DHT22;3138;52.550;13.148;2024-02-21T01:59:56;7.70;99.90
6210;DHT22;3138;52.550;13.148;2024-02-21T02:02:24;7.70;99.90
6210;DHT22;3138;52.550;13.148;2024-02-21T02:04:51;7.70;99.90
6210;DHT22;3138;52.550;13.148;2024-02-21T02:07:18;7.70;99.90
6210;DHT22;3138;52.550;13.148;2024-02-21T02:09:47;7.70;99.90
6210;DHT22;3138;52.550;13.148;2024-02-21T02:12:14;7.70;99.90
6210;DHT22;3138;52.550;13.148;2024-02-21T02:14:40;7.70;99.90
6210;DHT22;3138;52.550;13.148;2024-02-21T02:17:07;7.70;99.90
6210;DHT22;3138;52.550;13.148;2024-02-21T02:19:34;7.60;99.90
6210;DHT22;3138;52.550;13.148;2024-02-21T02:22:08;7.60;99.90
6210;DHT22;3138;52.550;13.148;2024-02-21T02:24:37;7.60;99.90
6210;DHT22;3138;52.550;13.148;2024-02-21T02:27:04;7.60;99.90
6210;DHT22;3138;52.550;13.148;2024-02-21T02:29:32;7.50;99.90
6210;DHT22;3138;52.550;13.148;2024-02-21T02:31:59;7.60;99.90
6210;DHT22;3138;52.550;13.148;2024-02-21T02:34:25;7.50;99.90
6210;DHT22;3138;52.550;13.148;2024-02-21T02:36:52;7.40;99.90
6210;DHT22;3138;52.550;13.148;2024-02-21T02:39:20;7.40;99.90
6210;DHT22;3138;52.550;13.148;2024-02-21T02:41:48;7.40;99.90
6210;DHT22;3138;52.550;13.148;2024-02-21T02:44:15;7.40;99.90
6210;DHT22;3138;52.550;13.148;2024-02-21T02:46:42;7.30;99.90
6210;DHT22;3138;52.550;13.148;2024-02-21T02:49:08;7.30;99.90
6210;DHT22;3138;52.550;13.148;2024-02-21T02:51:35;7.30;99.90
6210;DHT22;3138;52.550;13.148;2024-02-21T02:54:02;7.30;99.90
6210;DHT22;3138;52.550;13.148;2024-02-21T02:56:29;7.20;99.90
6210;DHT22;3138;52.550;13.148;2024-02-21T02:58:57;7.20;99.90
6210;DHT22;3138;52.550;13.148;2024-02-21T03:01:26;7.20;99.90
6210;DHT22;3138;52.550;13.148;2024-02-21T03:03:52;7.20;99.90
6210;DHT22;3138;52.550;13.148;2024-02-21T03:06:20;7.20;99.90
6210;DHT22;3138;52.550;13.148;2024-02-21T03:08:47;7.10;99.90
6210;DHT22;3138;52.550;13.148;2024-02-21T03:11:14;7.20;99.90
6210;DHT22;3138;52.550;13.148;2024-02-21T03:13:41;7.10;99.90
6210;DHT22;3138;52.550;13.148;2024-02-21T03:16:09;7.10;99.90
6210;DHT22;3138;52.550;13.148;2024-02-21T03:18:36;7.10;99.90
6210;DHT22;3138;52.550;13.148;2024-02-21T03:21:03;7.10;99.90
6210;DHT22;3138;52.550;13.148;2024-02-21T03:23:30;7.00;99.90
6210;DHT22;3138;52.550;13.148;2024-02-21T03:25:57;7.00;99.90
6210;DHT22;3138;52.550;13.148;2024-02-21T03:28:24;7.00;99.90
6210;DHT22;3138;52.550;13.148;2024-02-21T03:30:51;7.00;99.90
6210;DHT22;3138;52.550;13.148;2024-02-21T03:33:19;7.00;99.90
6210;DHT22;3138;52.550;13.148;2024-02-21T03:35:46;7.00;99.90
6210;DHT22;3138;52.550;13.148;2024-02-21T03:38:13;7.00;99.90
6210;DHT22;3138;52.550;13.148;2024-02-21T03:40:40;7.00;99.90
6210;DHT22;3138;52.550;13.148;2024-02-21T03:43:07;7.00;99.90
6210;DHT22;3138;52.550;13.148;2024-02-21T03:45:33;7.00;99.90
6210;DHT22;3138;52.550;13.148;2024-02-21T03:48:00;7.00;99.90
6210;DHT22;3138;52.550;13.148;2024-02-21T03:50:29;7.00;99.90
6210;DHT22;3138;52.550;13.148;2024-02-21T03:52:56;7.00;99.90
6210;DHT22;3138;52.550;13.148;2024-02-21T03:55:22;7.00;99.90
6210;DHT22;3138;52.550;13.148;2024-02-21T03:57:49;7.00;99.90
6210;DHT22;3138;52.550;13.148;2024-02-21T04:00:17;7.00;99.90
6210;DHT22;3138;52.550;13.148;2024-02-21T04:02:44;7.00;99.90
6210;DHT22;3138;52.550;13.148;2024-02-21T04:05:10;6.90;99.90
6210;DHT22;3138;52.550;13.148;2024-02-21T04:07:39;6.90;99.90
6210;DHT22;3138;52.550;13.148;2024-02-21T04:10:06;7.00;99.90
6210;DHT22;3138;52.550;13.148;2024-02-21T04:12:33;6.90;99.90
6210;DHT22;3138;52.550;13.148;2024-02-21T04:15:00;6.90;99.90
6210;DHT22;3138;52.550;13.148;2024-02-21T04:17:27;6.90;99.90
6210;DHT22;3138;52.550;13.148;2024-02-21T04:20:02;7.00;99.90
6210;DHT22;3138;52.550;13.148;2024-02-21T04:22:30;7.00;99.90
6210;DHT22;3138;52.550;13.148;2024-02-21T04:24:59;7.00;99.90
6210;DHT22;3138;52.550;13.148;2024-02-21T04:27:26;6.90;99.90
6210;DHT22;3138;52.550;13.148;2024-02-21T04:29:53;7.00;99.90
6210;DHT22;3138;52.550;13.148;2024-02-21T04:32:20;7.00;99.90
6210;DHT22;3138;52.550;13.148;2024-02-21T04:34:47;7.00;99.90
6210;DHT22;3138;52.550;13.148;2024-02-21T04:37:13;7.00;99.90
6210;DHT22;3138;52.550;13.148;2024-02-21T04:39:40;7.00;99.90
6210;DHT22;3138;52.550;13.148;2024-02-21T04:42:08;7.00;99.90
6210;DHT22;3138;52.550;13.148;2024-02-21T04:44:36;7.00;99.90
6210;DHT22;3138;52.550;13.148;2024-02-21T04:47:03;7.00;99.90
6210;DHT22;3138;52.550;13.148;2024-02-21T04:49:30;7.00;99.90
6210;DHT22;3138;52.550;13.148;2024-02-21T04:51:57;7.00;99.90
6210;DHT22;3138;52.550;13.148;2024-02-21T04:54:24;6.90;99.90
6210;DHT22;3138;52.550;13.148;2024-02-21T04:56:51;6.90;99.90
6210;DHT22;3138;52.550;13.148;2024-02-21T04:59:19;6.90;99.90
6210;DHT22;3138;52.550;13.148;2024-02-21T05:01:46;7.00;99.90
6210;DHT22;3138;52.550;13.148;2024-02-21T05:04:12;7.00;99.90
6210;DHT22;3138;52.550;13.148;2024-02-21T05:06:40;7.00;99.90
6210;DHT22;3138;52.550;13.148;2024-02-21T05:09:07;7.00;99.90
6210;DHT22;3138;52.550;13.148;2024-02-21T05:11:35;7.00;99.90
6210;DHT22;3138;52.550;13.148;2024-02-21T05:14:03;7.00;99.90
6210;DHT22;3138;52.550;13.148;2024-02-21T05:16:32;7.00;99.90
6210;DHT22;3138;52.550;13.148;2024-02-21T05:18:58;7.00;99.90
6210;DHT22;3138;52.550;13.148;2024-02-21T05:21:25;7.00;99.90
6210;DHT22;3138;52.550;13.148;2024-02-21T05:23:53;7.00;99.90
6210;DHT22;3138;52.550;13.148;2024-02-21T05:26:20;7.00;99.90
6210;DHT22;3138;52.550;13.148;2024-02-21T05:28:48;7.00;99.90
6210;DHT22;3138;52.550;13.148;2024-02-21T05:31:15;7.00;99.90
6210;DHT22;3138;52.550;13.148;2024-02-21T05:33:44;7.10;99.90
6210;DHT22;3138;52.550;13.148;2024-02-21T05:36:11;7.10;99.90
6210;DHT22;3138;52.550;13.148;2024-02-21T05:38:38;7.00;99.90
6210;DHT22;3138;52.550;13.148;2024-02-21T05:41:05;7.10;99.90
6210;DHT22;3138;52.550;13.148;2024-02-21T05:43:32;7.10;99.90
6210;DHT22;3138;52.550;13.148;2024-02-21T05:45:58;7.10;99.90
6210;DHT22;3138;52.550;13.148;2024-02-21T05:48:25;7.10;99.90
6210;DHT22;3138;52.550;13.148;2024-02-21T05:50:54;7.10;99.90
6210;DHT22;3138;52.550;13.148;2024-02-21T05:53:20;7.10;99.90
6210;DHT22;3138;52.550;13.148;2024-02-21T05:55:47;7.10;99.90
6210;DHT22;3138;52.550;13.148;2024-02-21T05:58:14;7.10;99.90
6210;DHT22;3138;52.550;13.148;2024-02-21T06:00:41;7.10;99.90
6210;DHT22;3138;52.550;13.148;2024-02-21T06:03:08;7.10;99.90
6210;DHT22;3138;52.550;13.148;2024-02-21T06:05:37;7.10;99.90
6210;DHT22;3138;52.550;13.148;2024-02-21T06:08:06;7.10;99.90
6210;DHT22;3138;52.550;13.148;2024-02-21T06:10:33;7.20;99.90
6210;DHT22;3138;52.550;13.148;2024-02-21T06:13:00;7.20;99.90
6210;DHT22;3138;52.550;13.148;2024-02-21T06:15:27;7.20;99.90
6210;DHT22;3138;52.550;13.148;2024-02-21T06:17:54;7.20;99.90
6210;DHT22;3138;52.550;13.148;2024-02-21T06:20:20;7.20;99.90
6210;DHT22;3138;52.550;13.148;2024-02-21T06:22:47;7.20;99.90
6210;DHT22;3138;52.550;13.148;2024-02-21T06:25:16;7.20;99.90
6210;DHT22;3138;52.550;13.148;2024-02-21T06:27:43;7.20;99.90
6210;DHT22;3138;52.550;13.148;2024-02-21T06:30:11;7.30;99.90
6210;DHT22;3138;52.550;13.148;2024-02-21T06:32:38;7.30;99.90
6210;DHT22;3138;52.550;13.148;2024-02-21T06:35:05;7.30;99.90
6210;DHT22;3138;52.550;13.148;2024-02-21T06:37:32;7.30;99.90
6210;DHT22;3138;52.550;13.148;2024-02-21T06:39:59;7.30;99.90
6210;DHT22;3138;52.550;13.148;2024-02-21T06:42:27;7.40;99.90
6210;DHT22;3138;52.550;13.148;2024-02-21T06:44:55;7.30;99.90
6210;DHT22;3138;52.550;13.148;2024-02-21T06:47:22;7.40;99.90
6210;DHT22;3138;52.550;13.148;2024-02-21T06:49:49;7.40;99.90
6210;DHT22;3138;52.550;13.148;2024-02-21T06:52:17;7.40;99.90
6210;DHT22;3138;52.550;13.148;2024-02-21T06:54:45;7.40;99.90
6210;DHT22;3138;52.550;13.148;2024-02-21T06:57:13;7.50;99.90
6210;DHT22;3138;52.550;13.148;2024-02-21T06:59:42;7.50;99.90
6210;DHT22;3138;52.550;13.148;2024-02-21T07:02:09;7.50;99.90
6210;DHT22;3138;52.550;13.148;2024-02-21T07:04:36;7.50;99.90
6210;DHT22;3138;52.550;13.148;2024-02-21T07:07:03;7.60;99.90
6210;DHT22;3138;52.550;13.148;2024-02-21T07:09:30;7.60;99.90
6210;DHT22;3138;52.550;13.148;2024-02-21T07:11:57;7.60;99.90
6210;DHT22;3138;52.550;13.148;2024-02-21T07:14:24;7.60;99.90
6210;DHT22;3138;52.550;13.148;2024-02-21T07:16:53;7.70;99.90
6210;DHT22;3138;52.550;13.148;2024-02-21T07:19:20;7.60;99.90
6210;DHT22;3138;52.550;13.148;2024-02-21T07:21:46;7.70;99.90
6210;DHT22;3138;52.550;13.148;2024-02-21T07:24:13;7.70;99.90
6210;DHT22;3138;52.550;13.148;2024-02-21T07:26:41;7.80;99.90
6210;DHT22;3138;52.550;13.148;2024-02-21T07:29:09;7.90;99.90
6210;DHT22;3138;52.550;13.148;2024-02-21T07:31:40;7.90;99.90
6210;DHT22;3138;52.550;13.148;2024-02-21T07:34:08;7.90;99.90
6210;DHT22;3138;52.550;13.148;2024-02-21T07:36:36;7.90;99.90
6210;DHT22;3138;52.550;13.148;2024-02-21T07:39:03;8.00;99.90
6210;DHT22;3138;52.550;13.148;2024-02-21T07:41:30;8.00;99.90
6210;DHT22;3138;52.550;13.148;2024-02-21T07:43:57;8.00;99.90
6210;DHT22;3138;52.550;13.148;2024-02-21T07:46:24;8.00;99.90
6210;DHT22;3138;52.550;13.148;2024-02-21T07:48:51;8.00;99.90
6210;DHT22;3138;52.550;13.148;2024-02-21T07:51:19;8.00;99.90
6210;DHT22;3138;52.550;13.148;2024-02-21T07:53:46;8.00;99.90
6210;DHT22;3138;52.550;13.148;2024-02-21T07:56:14;8.00;99.90
6210;DHT22;3138;52.550;13.148;2024-02-21T07:58:41;7.90;99.90
6210;DHT22;3138;52.550;13.148;2024-02-21T08:01:08;7.90;99.90
6210;DHT22;3138;52.550;13.148;2024-02-21T08:03:35;8.00;99.90
6210;DHT22;3138;52.550;13.148;2024-02-21T08:06:03;8.00;99.90
6210;DHT22;3138;52.550;13.148;2024-02-21T08:08:31;8.10;99.90
6210;DHT22;3138;52.550;13.148;2024-02-21T08:10:58;8.10;99.90
6210;DHT22;3138;52.550;13.148;2024-02-21T08:13:25;8.10;99.90
6210;DHT22;3138;52.550;13.148;2024-02-21T08:15:54;8.20;99.90
6210;DHT22;3138;52.550;13.148;2024-02-21T08:18:21;8.20;99.90
6210;DHT22;3138;52.550;13.148;2024-02-21T08:20:47;8.20;99.90
6210;DHT22;3138;52.550;13.148;2024-02-21T08:23:16;8.30;99.90
6210;DHT22;3138;52.550;13.148;2024-02-21T08:25:44;8.40;99.90
6210;DHT22;3138;52.550;13.148;2024-02-21T08:28:11;8.40;99.90
6210;DHT22;3138;52.550;13.148;2024-02-21T08:30:38;8.50;99.90
6210;DHT22;3138;52.550;13.148;2024-02-21T08:33:05;8.70;99.90
6210;DHT22;3138;52.550;13.148;2024-02-21T08:35:32;8.80;99.90
6210;DHT22;3138;52.550;13.148;2024-02-21T08:37:59;9.00;99.90
6210;DHT22;3138;52.550;13.148;2024-02-21T08:40:26;8.90;99.90
6210;DHT22;3138;52.550;13.148;2024-02-21T08:42:54;8.90;99.90
6210;DHT22;3138;52.550;13.148;2024-02-21T08:45:21;9.00;99.90
6210;DHT22;3138;52.550;13.148;2024-02-21T08:47:48;9.00;99.90
6210;DHT22;3138;52.550;13.148;2024-02-21T08:50:15;9.10;99.90
6210;DHT22;3138;52.550;13.148;2024-02-21T08:52:41;9.00;99.90
6210;DHT22;3138;52.550;13.148;2024-02-21T08:55:09;9.00;99.90
6210;DHT22;3138;52.550;13.148;2024-02-21T08:57:36;8.90;99.90
6210;DHT22;3138;52.550;13.148;2024-02-21T09:00:06;8.90;99.90
6210;DHT22;3138;52.550;13.148;2024-02-21T09:02:35;8.80;99.90
6210;DHT22;3138;52.550;13.148;2024-02-21T09:05:03;8.90;99.90
6210;DHT22;3138;52.550;13.148;2024-02-21T09:07:31;9.00;99.90
6210;DHT22;3138;52.550;13.148;2024-02-21T09:09:58;9.00;99.90
6210;DHT22;3138;52.550;13.148;2024-02-21T09:12:25;9.00;99.90
6210;DHT22;3138;52.550;13.148;2024-02-21T09:14:52;9.10;99.90
6210;DHT22;3138;52.550;13.148;2024-02-21T09:17:21;9.10;99.90
6210;DHT22;3138;52.550;13.148;2024-02-21T09:19:49;9.10;99.90
6210;DHT22;3138;52.550;13.148;2024-02-21T09:22:16;9.20;99.90
6210;DHT22;3138;52.550;13.148;2024-02-21T09:24:43;9.30;99.90
6210;DHT22;3138;52.550;13.148;2024-02-21T09:27:10;9.30;99.90
6210;DHT22;3138;52.550;13.148;2024-02-21T09:29:37;9.30;99.90
6210;DHT22;3138;52.550;13.148;2024-02-21T09:32:05;9.40;99.90
6210;DHT22;3138;52.550;13.148;2024-02-21T09:34:33;9.60;99.90
6210;DHT22;3138;52.550;13.148;2024-02-21T09:37:00;9.70;99.90
6210;DHT22;3138;52.550;13.148;2024-02-21T09:39:27;9.70;99.90
6210;DHT22;3138;52.550;13.148;2024-02-21T09:41:59;9.50;99.90
6210;DHT22;3138;52.550;13.148;2024-02-21T09:44:34;9.50;99.90
6210;DHT22;3138;52.550;13.148;2024-02-21T09:47:04;9.50;99.90
6210;DHT22;3138;52.550;13.148;2024-02-21T09:49:34;9.50;99.90
6210;DHT22;3138;52.550;13.148;2024-02-21T09:52:04;9.50;99.90
6210;DHT22;3138;52.550;13.148;2024-02-21T09:54:33;9.50;99.90
6210;DHT22;3138;52.550;13.148;2024-02-21T09:57:00;9.60;99.90
6210;DHT22;3138;52.550;13.148;2024-02-21T09:59:28;9.60;99.90
6210;DHT22;3138;52.550;13.148;2024-02-21T10:01:55;9.60;99.90
6210;DHT22;3138;52.550;13.148;2024-02-21T10:04:23;9.70;99.90
6210;DHT22;3138;52.550;13.148;2024-02-21T10:06:51;9.60;99.90
6210;DHT22;3138;52.550;13.148;2024-02-21T10:09:22;9.70;99.90
6210;DHT22;3138;52.550;13.148;2024-02-21T10:11:49;9.70;99.90
6210;DHT22;3138;52.550;13.148;2024-02-21T10:14:16;9.70;99.90
6210;DHT22;3138;52.550;13.148;2024-02-21T10:16:44;9.80;99.90
6210;DHT22;3138;52.550;13.148;2024-02-21T10:19:20;10.00;99.90
6210;DHT22;3138;52.550;13.148;2024-02-21T10:22:02;10.10;99.90
6210;DHT22;3138;52.550;13.148;2024-02-21T10:24:30;10.40;99.90
6210;DHT22;3138;52.550;13.148;2024-02-21T10:27:02;10.40;99.90
6210;DHT22;3138;52.550;13.148;2024-02-21T10:29:29;10.40;99.90
6210;DHT22;3138;52.550;13.148;2024-02-21T10:32:07;10.30;99.90
6210;DHT22;3138;52.550;13.148;2024-02-21T10:34:34;10.10;99.90
6210;DHT22;3138;52.550;13.148;2024-02-21T10:37:04;10.20;99.90
6210;DHT22;3138;52.550;13.148;2024-02-21T10:39:32;10.20;99.90
6210;DHT22;3138;52.550;13.148;2024-02-21T10:42:00;10.10;99.90
6210;DHT22;3138;52.550;13.148;2024-02-21T10:44:30;10.00;99.90
6210;DHT22;3138;52.550;13.148;2024-02-21T10:46:57;9.80;99.90
6210;DHT22;3138;52.550;13.148;2024-02-21T10:49:25;9.70;99.90
6210;DHT22;3138;52.550;13.148;2024-02-21T10:51:56;9.70;99.90
6210;DHT22;3138;52.550;13.148;2024-02-21T10:54:39;9.80;99.90
6210;DHT22;3138;52.550;13.148;2024-02-21T10:57:07;10.00;99.90
6210;DHT22;3138;52.550;13.148;2024-02-21T10:59:37;10.30;99.90
6210;DHT22;3138;52.550;13.148;2024-02-21T11:02:06;10.30;99.90
6210;DHT22;3138;52.550;13.148;2024-02-21T11:04:33;10.30;99.90
6210;DHT22;3138;52.550;13.148;2024-02-21T11:07:03;10.50;99.90
6210;DHT22;3138;52.550;13.148;2024-02-21T11:09:32;10.60;99.90
6210;DHT22;3138;52.550;13.148;2024-02-21T11:12:01;10.60;99.90
6210;DHT22;3138;52.550;13.148;2024-02-21T11:14:29;10.60;99.90
6210;DHT22;3138;52.550;13.148;2024-02-21T11:16:58;10.60;99.90
6210;DHT22;3138;52.550;13.148;2024-02-21T11:19:26;10.70;99.90
6210;DHT22;3138;52.550;13.148;2024-02-21T11:21:54;11.10;99.90
6210;DHT22;3138;52.550;13.148;2024-02-21T11:24:29;11.50;99.90
6210;DHT22;3138;52.550;13.148;2024-02-21T11:27:08;11.50;99.90
6210;DHT22;3138;52.550;13.148;2024-02-21T11:29:40;11.40;99.90
6210;DHT22;3138;52.550;13.148;2024-02-21T11:32:09;11.40;99.90
6210;DHT22;3138;52.550;13.148;2024-02-21T11:34:36;11.70;99.90
6210;DHT22;3138;52.550;13.148;2024-02-21T11:37:13;11.80;99.90
6210;DHT22;3138;52.550;13.148;2024-02-21T11:39:41;11.90;99.90
6210;DHT22;3138;52.550;13.148;2024-02-21T11:42:10;12.00;99.90
6210;DHT22;3138;52.550;13.148;2024-02-21T11:44:38;11.90;99.90
6210;DHT22;3138;52.550;13.148;2024-02-21T11:47:08;11.80;99.90
6210;DHT22;3138;52.550;13.148;2024-02-21T11:49:37;11.70;99.90
6210;DHT22;3138;52.550;13.148;2024-02-21T11:52:05;11.70;99.90
6210;DHT22;3138;52.550;13.148;2024-02-21T11:54:32;11.90;99.90
6210;DHT22;3138;52.550;13.148;2024-02-21T11:57:00;11.90;99.90
6210;DHT22;3138;52.550;13.148;2024-02-21T11:59:30;11.90;99.90
6210;DHT22;3138;52.550;13.148;2024-02-21T12:01:58;11.70;99.90
6210;DHT22;3138;52.550;13.148;2024-02-21T12:04:26;11.50;99.90
6210;DHT22;3138;52.550;13.148;2024-02-21T12:06:53;11.70;99.90
6210;DHT22;3138;52.550;13.148;2024-02-21T12:09:20;11.80;99.90
6210;DHT22;3138;52.550;13.148;2024-02-21T12:11:57;11.90;99.90
6210;DHT22;3138;52.550;13.148;2024-02-21T12:14:25;11.80;99.90
6210;DHT22;3138;52.550;13.148;2024-02-21T12:16:53;11.50;99.90
6210;DHT22;3138;52.550;13.148;2024-02-21T12:19:21;11.60;99.90
6210;DHT22;3138;52.550;13.148;2024-02-21T12:21:49;11.50;99.90
6210;DHT22;3138;52.550;13.148;2024-02-21T12:24:17;11.40;99.90
6210;DHT22;3138;52.550;13.148;2024-02-21T12:26:45;11.60;99.90
6210;DHT22;3138;52.550;13.148;2024-02-21T12:29:12;11.70;99.90
6210;DHT22;3138;52.550;13.148;2024-02-21T12:31:39;11.90;99.90
6210;DHT22;3138;52.550;13.148;2024-02-21T12:34:07;11.80;99.90
6210;DHT22;3138;52.550;13.148;2024-02-21T12:36:36;11.70;99.90
6210;DHT22;3138;52.550;13.148;2024-02-21T12:39:07;12.00;99.90
6210;DHT22;3138;52.550;13.148;2024-02-21T12:41:35;12.10;99.90
6210;DHT22;3138;52.550;13.148;2024-02-21T12:44:04;12.00;99.90
6210;DHT22;3138;52.550;13.148;2024-02-21T12:46:32;11.90;99.90
6210;DHT22;3138;52.550;13.148;2024-02-21T12:48:59;11.80;99.90
6210;DHT22;3138;52.550;13.148;2024-02-21T12:51:27;12.00;99.90
6210;DHT22;3138;52.550;13.148;2024-02-21T12:53:55;12.10;99.90
6210;DHT22;3138;52.550;13.148;2024-02-21T12:56:22;12.00;99.90
6210;DHT22;3138;52.550;13.148;2024-02-21T12:58:49;12.00;99.90
6210;DHT22;3138;52.550;13.148;2024-02-21T13:01:16;12.00;99.90
6210;DHT22;3138;52.550;13.148;2024-02-21T13:03:43;12.00;99.90
6210;DHT22;3138;52.550;13.148;2024-02-21T13:06:12;12.20;99.90
6210;DHT22;3138;52.550;13.148;2024-02-21T13:08:40;12.30;99.90
6210;DHT22;3138;52.550;13.148;2024-02-21T13:11:07;12.30;99.90
6210;DHT22;3138;52.550;13.148;2024-02-21T13:13:34;12.10;99.30
6210;DHT22;3138;52.550;13.148;2024-02-21T13:16:01;12.20;99.50
6210;DHT22;3138;52.550;13.148;2024-02-21T13:18:28;12.20;97.70
6210;DHT22;3138;52.550;13.148;2024-02-21T13:20:55;12.20;98.20
6210;DHT22;3138;52.550;13.148;2024-02-21T13:23:22;12.20;97.40
6210;DHT22;3138;52.550;13.148;2024-02-21T13:25:50;12.10;98.50
6210;DHT22;3138;52.550;13.148;2024-02-21T13:28:17;11.90;98.80
6210;DHT22;3138;52.550;13.148;2024-02-21T13:30:44;11.90;99.90
6210;DHT22;3138;52.550;13.148;2024-02-21T13:33:11;11.70;99.90
6210;DHT22;3138;52.550;13.148;2024-02-21T13:35:38;11.70;99.90
6210;DHT22;3138;52.550;13.148;2024-02-21T13:38:05;11.70;99.90
6210;DHT22;3138;52.550;13.148;2024-02-21T13:40:31;11.70;99.90
6210;DHT22;3138;52.550;13.148;2024-02-21T13:43:00;11.70;99.90
6210;DHT22;3138;52.550;13.148;2024-02-21T13:45:26;11.70;99.90
6210;DHT22;3138;52.550;13.148;2024-02-21T13:47:53;11.60;99.90
6210;DHT22;3138;52.550;13.148;2024-02-21T13:50:29;11.60;99.90
6210;DHT22;3138;52.550;13.148;2024-02-21T13:52:56;11.60;99.90
6210;DHT22;3138;52.550;13.148;2024-02-21T13:55:23;11.60;99.50
6210;DHT22;3138;52.550;13.148;2024-02-21T13:57:51;11.70;99.90
6210;DHT22;3138;52.550;13.148;2024-02-21T14:00:20;11.60;99.90
6210;DHT22;3138;52.550;13.148;2024-02-21T14:02:47;11.60;99.90
6210;DHT22;3138;52.550;13.148;2024-02-21T14:05:14;11.60;99.90
6210;DHT22;3138;52.550;13.148;2024-02-21T14:07:40;11.60;98.30
6210;DHT22;3138;52.550;13.148;2024-02-21T14:10:08;11.50;99.20
6210;DHT22;3138;52.550;13.148;2024-02-21T14:12:36;11.50;98.60
6210;DHT22;3138;52.550;13.148;2024-02-21T14:15:05;11.50;98.50
6210;DHT22;3138;52.550;13.148;2024-02-21T14:17:34;11.40;98.30
6210;DHT22;3138;52.550;13.148;2024-02-21T14:20:01;11.50;99.50
6210;DHT22;3138;52.550;13.148;2024-02-21T14:22:30;11.50;98.80
6210;DHT22;3138;52.550;13.148;2024-02-21T14:24:57;11.50;99.20
6210;DHT22;3138;52.550;13.148;2024-02-21T14:27:23;11.60;98.20
6210;DHT22;3138;52.550;13.148;2024-02-21T14:29:53;11.60;98.60
6210;DHT22;3138;52.550;13.148;2024-02-21T14:32:20;11.60;99.10
6210;DHT22;3138;52.550;13.148;2024-02-21T14:34:48;11.50;97.50
6210;DHT22;3138;52.550;13.148;2024-02-21T14:37:15;11.50;98.50
6210;DHT22;3138;52.550;13.148;2024-02-21T14:39:42;11.50;95.60
6210;DHT22;3138;52.550;13.148;2024-02-21T14:42:09;11.50;95.50
6210;DHT22;3138;52.550;13.148;2024-02-21T14:44:36;11.40;95.90
6210;DHT22;3138;52.550;13.148;2024-02-21T14:47:03;11.50;95.60
6210;DHT22;3138;52.550;13.148;2024-02-21T14:49:30;11.50;96.60
6210;DHT22;3138;52.550;13.148;2024-02-21T14:51:58;11.40;94.20
6210;DHT22;3138;52.550;13.148;2024-02-21T14:54:25;11.50;93.20
6210;DHT22;3138;52.550;13.148;2024-02-21T14:56:52;11.40;94.90
6210;DHT22;3138;52.550;13.148;2024-02-21T14:59:20;11.50;95.60
6210;DHT22;3138;52.550;13.148;2024-02-21T15:01:46;11.50;93.60
6210;DHT22;3138;52.550;13.148;2024-02-21T15:04:13;11.50;92.10
6210;DHT22;3138;52.550;13.148;2024-02-21T15:06:40;11.60;91.70
6210;DHT22;3138;52.550;13.148;2024-02-21T15:09:09;11.40;86.80
6210;DHT22;3138;52.550;13.148;2024-02-21T15:11:36;11.30;90.40
6210;DHT22;3138;52.550;13.148;2024-02-21T15:14:03;11.10;91.30
6210;DHT22;3138;52.550;13.148;2024-02-21T15:16:30;11.00;90.90
6210;DHT22;3138;52.550;13.148;2024-02-21T15:18:57;10.90;89.10
6210;DHT22;3138;52.550;13.148;2024-02-21T15:21:24;10.80;88.40
6210;DHT22;3138;52.550;13.148;2024-02-21T15:23:51;10.80;91.30
6210;DHT22;3138;52.550;13.148;2024-02-21T15:26:20;10.70;92.40
6210;DHT22;3138;52.550;13.148;2024-02-21T15:28:46;10.60;91.30
6210;DHT22;3138;52.550;13.148;2024-02-21T15:31:20;10.60;92.60
6210;DHT22;3138;52.550;13.148;2024-02-21T15:33:48;10.50;92.20
6210;DHT22;3138;52.550;13.148;2024-02-21T15:36:15;10.40;93.60
6210;DHT22;3138;52.550;13.148;2024-02-21T15:38:42;10.40;93.00
6210;DHT22;3138;52.550;13.148;2024-02-21T15:41:11;10.30;93.60
6210;DHT22;3138;52.550;13.148;2024-02-21T15:43:40;10.20;95.30
6210;DHT22;3138;52.550;13.148;2024-02-21T15:46:07;10.10;97.70
6210;DHT22;3138;52.550;13.148;2024-02-21T15:48:33;10.00;99.00
6210;DHT22;3138;52.550;13.148;2024-02-21T15:51:00;10.00;99.90
6210;DHT22;3138;52.550;13.148;2024-02-21T15:53:29;10.00;99.90
6210;DHT22;3138;52.550;13.148;2024-02-21T15:55:56;9.90;99.90
6210;DHT22;3138;52.550;13.148;2024-02-21T15:58:23;9.80;99.90
6210;DHT22;3138;52.550;13.148;2024-02-21T16:00:51;9.70;99.90